createdAt,value
2019-01-17T00:01:27.896Z,100603.08
2019-01-17T00:04:20.448Z,100604.26
2019-01-17T00:07:08.695Z,100602.38
2019-01-17T00:09:52.216Z,100612.18
2019-01-17T00:12:48.460Z,100606.75
2019-01-17T00:15:37.832Z,100617.81
2019-01-17T00:18:27.929Z,100611.48
2019-01-17T00:21:22.824Z,100609.95
2019-01-17T00:24:02.742Z,100606.08
2019-01-17T00:27:07.919Z,100616.59
2019-01-17T00:30:00.297Z,100614.84
2019-01-17T00:32:44.432Z,100625.05
2019-01-17T00:35:44.325Z,100624.56
2019-01-17T00:38:38.817Z,100619.70
2019-01-17T00:41:17.438Z,100625.33
2019-01-17T00:44:07.017Z,100634.51
2019-01-17T00:47:11.654Z,100628.95
2019-01-17T00:49:59.684Z,100641.78
2019-01-17T00:52:49.165Z,100627.84
2019-01-17T00:55:38.639Z,100627.53
2019-01-17T00:58:27.469Z,100622.08
2019-01-17T01:01:20.042Z,100620.11
2019-01-17T01:04:15.516Z,100627.75
2019-01-17T01:07:11.387Z,100627.25
2019-01-17T01:10:07.219Z,100626.63
2019-01-17T01:12:56.893Z,100631.13
2019-01-17T01:19:20.329Z,100627.30
2019-01-17T01:22:28.136Z,100622.69
2019-01-17T01:25:23.859Z,100619.94
2019-01-17T01:28:12.917Z,100617.34
2019-01-17T01:31:02.292Z,100606.57
2019-01-17T01:33:50.537Z,100610.63
2019-01-17T01:36:42.474Z,100614.50
2019-01-17T01:39:33.488Z,100609.45
2019-01-17T01:42:25.036Z,100613.59
2019-01-17T01:45:05.573Z,100608.22
2019-01-17T01:48:01.290Z,100617.27
2019-01-17T01:50:59.572Z,100619.84
2019-01-17T01:53:31.192Z,100627.05
2019-01-17T01:56:01.664Z,100623.70
2019-01-17T01:58:32.882Z,100618.41
2019-01-17T02:01:03.469Z,100616.36
2019-01-17T02:03:34.017Z,100617.02
2019-01-17T02:06:04.899Z,100614.02
2019-01-17T02:08:35.695Z,100611.20
2019-01-17T02:11:06.360Z,100620.44
2019-01-17T02:13:37.561Z,100622.71
2019-01-17T02:16:08.193Z,100629.96
2019-01-17T02:18:38.852Z,100626.14
2019-01-17T02:21:09.681Z,100621.16
2019-01-17T02:23:41.733Z,100616.16
2019-01-17T02:26:12.442Z,100621.31
2019-01-17T02:28:44.369Z,100620.13
2019-01-17T02:31:14.902Z,100622.33
2019-01-17T02:33:45.862Z,100632.00
2019-01-17T02:36:16.743Z,100632.11
2019-01-17T02:38:47.383Z,100634.19
2019-01-17T02:41:17.891Z,100641.70
2019-01-17T02:43:48.995Z,100638.20
2019-01-17T02:46:20.641Z,100642.03
2019-01-17T02:48:51.413Z,100649.05
2019-01-17T02:51:23.441Z,100646.38
2019-01-17T02:53:54.072Z,100649.86
2019-01-17T02:56:24.774Z,100655.59
2019-01-17T02:58:55.511Z,100654.59
2019-01-17T03:01:26.237Z,100650.83
2019-01-17T03:03:56.772Z,100652.55
2019-01-17T03:06:27.315Z,100651.83
2019-01-17T03:08:57.835Z,100650.27
2019-01-17T03:11:28.736Z,100658.48
2019-01-17T03:13:59.165Z,100669.20
2019-01-17T03:16:29.894Z,100666.30
2019-01-17T03:19:01.672Z,100668.13
2019-01-17T03:21:32.140Z,100676.96
2019-01-17T03:24:02.733Z,100681.95
2019-01-17T03:26:34.222Z,100681.48
2019-01-17T03:29:05.062Z,100686.16
2019-01-17T03:31:35.681Z,100686.55
2019-01-17T03:34:07.729Z,100683.97
2019-01-17T03:36:39.578Z,100683.45
2019-01-17T03:39:12.698Z,100691.02
2019-01-17T03:41:43.168Z,100694.03
2019-01-17T03:44:13.952Z,100699.42
2019-01-17T03:46:45.657Z,100703.14
2019-01-17T03:49:17.681Z,100707.67
2019-01-17T03:51:48.544Z,100713.03
2019-01-17T03:54:19.833Z,100714.11
2019-01-17T03:56:50.434Z,100716.80
2019-01-17T03:59:20.958Z,100720.27
2019-01-17T04:01:51.439Z,100719.45
2019-01-17T04:04:21.821Z,100720.11
2019-01-17T04:06:52.667Z,100726.16
2019-01-17T04:09:23.535Z,100722.30
2019-01-17T04:11:54.194Z,100729.45
2019-01-17T04:14:24.710Z,100728.33
2019-01-17T04:16:55.543Z,100730.09
2019-01-17T04:19:28.487Z,100728.84
2019-01-17T04:21:59.936Z,100730.41
2019-01-17T04:24:30.891Z,100733.80
2019-01-17T04:27:01.514Z,100730.41
2019-01-17T04:29:33.402Z,100723.59
2019-01-17T04:32:04.444Z,100730.11
2019-01-17T04:34:35.354Z,100719.56
2019-01-17T04:37:06.275Z,100721.03
2019-01-17T04:39:37.164Z,100735.06
2019-01-17T04:42:07.842Z,100730.91
2019-01-17T04:44:38.750Z,100729.92
2019-01-17T04:47:11.112Z,100737.59
2019-01-17T04:49:43.103Z,100736.36
2019-01-17T04:52:13.555Z,100738.92
2019-01-17T04:54:44.539Z,100736.22
2019-01-17T04:57:14.993Z,100738.58
2019-01-17T04:59:45.572Z,100740.20
2019-01-17T05:02:17.402Z,100744.63
2019-01-17T05:04:48.347Z,100752.40
2019-01-17T05:07:19.030Z,100755.06
2019-01-17T05:09:49.647Z,100750.81
2019-01-17T05:12:20.611Z,100754.28
2019-01-17T05:14:51.391Z,100759.22
2019-01-17T05:17:23.403Z,100758.02
2019-01-17T05:19:54.067Z,100761.49
2019-01-17T05:22:24.671Z,100765.75
2019-01-17T05:24:55.545Z,100768.48
2019-01-17T05:27:26.053Z,100767.93
2019-01-17T05:35:43.907Z,100774.38
2019-01-17T05:38:14.740Z,100762.36
2019-01-17T05:40:45.348Z,100770.04
2019-01-17T05:43:16.080Z,100768.31
2019-01-17T05:45:48.035Z,100758.66
2019-01-17T05:48:19.021Z,100761.14
2019-01-17T05:50:49.889Z,100764.10
2019-01-17T05:53:20.452Z,100763.25
2019-01-17T05:55:51.570Z,100760.96
2019-01-17T05:58:22.297Z,100763.31
2019-01-17T06:00:53.918Z,100753.73
2019-01-17T06:03:24.625Z,100767.66
2019-01-17T06:05:55.354Z,100771.30
2019-01-17T06:08:25.942Z,100773.74
2019-01-17T06:10:56.634Z,100768.02
2019-01-17T06:13:27.440Z,100767.91
2019-01-17T06:15:58.754Z,100767.19
2019-01-17T06:18:29.585Z,100760.94
2019-01-17T06:21:00.218Z,100770.15
2019-01-17T06:23:30.896Z,100766.68
2019-01-17T06:26:01.666Z,100776.12
2019-01-17T06:28:32.457Z,100776.03
2019-01-17T06:31:03.287Z,100778.30
2019-01-17T06:33:34.068Z,100771.94
2019-01-17T06:36:05.231Z,100771.33
2019-01-17T06:38:35.883Z,100770.71
2019-01-17T06:41:06.544Z,100765.13
2019-01-17T06:43:38.805Z,100772.61
2019-01-17T06:46:10.657Z,100773.12
2019-01-17T06:48:41.176Z,100779.59
2019-01-17T06:51:11.844Z,100782.02
2019-01-17T06:53:42.487Z,100778.67
2019-01-17T06:56:13.118Z,100777.99
2019-01-17T06:58:43.752Z,100780.46
2019-01-17T07:01:14.517Z,100780.64
2019-01-17T07:03:45.421Z,100784.72
2019-01-17T07:06:16.244Z,100782.81
2019-01-17T07:08:48.255Z,100780.96
2019-01-17T07:11:20.647Z,100786.93
2019-01-17T07:13:52.596Z,100791.19
2019-01-17T07:16:23.579Z,100790.57
2019-01-17T07:18:54.202Z,100799.39
2019-01-17T07:21:24.707Z,100798.94
2019-01-17T07:23:55.616Z,100802.91
2019-01-17T07:26:26.306Z,100795.80
2019-01-17T07:28:56.888Z,100806.58
2019-01-17T07:31:27.581Z,100800.20
2019-01-17T07:33:58.256Z,100804.44
2019-01-17T07:36:29.259Z,100793.35
2019-01-17T07:38:59.937Z,100791.80
2019-01-17T07:41:30.809Z,100794.98
2019-01-17T07:44:01.493Z,100798.95
2019-01-17T07:46:33.939Z,100802.84
2019-01-17T07:49:04.472Z,100796.89
2019-01-17T07:51:35.010Z,100795.39
2019-01-17T07:54:05.684Z,100797.66
2019-01-17T07:56:36.845Z,100793.91
2019-01-17T07:59:09.750Z,100797.36
2019-01-17T08:01:40.329Z,100792.48
2019-01-17T08:04:12.513Z,100792.86
2019-01-17T08:06:43.106Z,100795.41
2019-01-17T08:09:13.779Z,100775.42
2019-01-17T08:11:44.344Z,100803.05
2019-01-17T08:14:14.868Z,100802.48
2019-01-17T08:16:45.370Z,100799.41
2019-01-17T08:19:16.209Z,100799.88
2019-01-17T08:21:46.659Z,100808.83
2019-01-17T08:24:18.336Z,100808.96
2019-01-17T08:26:48.985Z,100810.91
2019-01-17T08:29:19.526Z,100809.61
2019-01-17T08:31:49.874Z,100809.33
2019-01-17T08:34:21.427Z,100811.80
2019-01-17T08:36:51.969Z,100815.17
2019-01-17T08:39:22.566Z,100817.45
2019-01-17T08:41:54.281Z,100814.52
2019-01-17T08:44:24.651Z,100812.95
2019-01-17T08:46:55.536Z,100812.50
2019-01-17T08:49:26.096Z,100805.17
2019-01-17T08:51:56.513Z,100806.39
2019-01-17T08:54:26.850Z,100797.58
2019-01-17T08:56:57.415Z,100789.35
2019-01-17T08:59:28.222Z,100789.87
2019-01-17T09:01:58.565Z,100786.36
2019-01-17T09:04:29.337Z,100787.94
2019-01-17T09:06:59.758Z,100793.40
2019-01-17T09:09:30.117Z,100793.98
2019-01-17T09:12:00.662Z,100799.86
2019-01-17T09:14:31.378Z,100794.31
2019-01-17T09:17:02.005Z,100787.56
2019-01-17T09:19:32.659Z,100786.71
2019-01-17T09:22:02.971Z,100783.27
2019-01-17T09:24:33.542Z,100780.67
2019-01-17T09:27:04.002Z,100775.62
2019-01-17T09:29:34.309Z,100772.45
2019-01-17T09:32:05.140Z,100767.84
2019-01-17T09:34:36.659Z,100769.57
2019-01-17T09:37:07.300Z,100766.11
2019-01-17T09:39:37.882Z,100764.56
2019-01-17T09:42:08.676Z,100755.20
2019-01-17T09:44:40.080Z,100754.27
2019-01-17T09:47:10.604Z,100752.13
2019-01-17T09:49:41.258Z,100742.03
2019-01-17T09:52:11.569Z,100742.24
2019-01-17T09:54:43.705Z,100736.18
2019-01-17T09:57:14.098Z,100731.70
2019-01-17T09:59:45.856Z,100734.55
2019-01-17T10:02:16.401Z,100739.34
2019-01-17T10:04:46.979Z,100727.55
2019-01-17T10:07:17.823Z,100719.88
2019-01-17T10:09:48.505Z,100717.39
2019-01-17T10:12:19.107Z,100710.20
2019-01-17T10:14:49.440Z,100703.97
2019-01-17T10:17:29.355Z,100703.38
2019-01-17T10:20:34.522Z,100698.45
2019-01-17T10:23:28.411Z,100699.81
2019-01-17T10:26:11.729Z,100698.45
2019-01-17T10:29:20.961Z,100692.69
2019-01-17T10:32:15.660Z,100691.33
2019-01-17T10:35:40.671Z,100688.33
2019-01-17T10:38:29.626Z,100680.80
2019-01-17T10:41:42.966Z,100677.49
2019-01-17T10:44:37.051Z,100676.82
2019-01-17T10:47:50.998Z,100667.69
2019-01-17T10:51:00.947Z,100669.81
2019-01-17T10:53:54.827Z,100660.50
2019-01-17T10:57:06.298Z,100662.89
2019-01-17T11:00:18.663Z,100658.69
2019-01-17T11:03:29.007Z,100659.69
2019-01-17T11:06:17.241Z,100660.24
2019-01-17T11:09:08.753Z,100659.48
2019-01-17T11:12:28.542Z,100660.77
2019-01-17T11:15:35.016Z,100643.67
2019-01-17T11:18:37.049Z,100639.25
2019-01-17T11:21:50.318Z,100629.91
2019-01-17T11:25:05.614Z,100627.08
2019-01-17T11:28:09.329Z,100625.33
2019-01-17T11:31:20.295Z,100622.20
2019-01-17T11:34:35.259Z,100622.97
2019-01-17T11:37:46.705Z,100618.52
2019-01-17T11:40:40.355Z,100617.01
2019-01-17T11:44:00.644Z,100624.73
2019-01-17T11:47:20.393Z,100621.66
2019-01-17T11:50:27.346Z,100620.06
2019-01-17T11:53:49.330Z,100620.83
2019-01-17T11:57:06.840Z,100608.82
2019-01-17T12:00:19.785Z,100606.53
2019-01-17T12:03:24.156Z,100605.08
2019-01-17T12:05:55.612Z,100606.59
2019-01-17T12:08:26.020Z,100607.02
2019-01-17T12:10:56.549Z,100595.28
2019-01-17T12:13:26.815Z,100600.47
2019-01-17T12:15:57.115Z,100604.89
2019-01-17T12:18:27.598Z,100598.74
2019-01-17T12:20:58.219Z,100598.83
2019-01-17T12:23:28.979Z,100594.97
2019-01-17T12:25:59.582Z,100594.63
2019-01-17T12:28:30.423Z,100593.09
2019-01-17T12:31:00.731Z,100596.66
2019-01-17T12:33:31.303Z,100592.06
2019-01-17T12:36:01.669Z,100592.75
2019-01-17T12:38:32.154Z,100587.80
2019-01-17T12:41:02.689Z,100590.23
2019-01-17T12:43:33.024Z,100587.72
2019-01-17T12:46:03.502Z,100587.72
2019-01-17T12:48:34.055Z,100584.62
2019-01-17T12:51:06.503Z,100579.75
2019-01-17T12:53:36.880Z,100586.27
2019-01-17T12:56:08.843Z,100582.09
2019-01-17T12:58:39.548Z,100585.89
2019-01-17T13:01:10.045Z,100586.41
2019-01-17T13:03:40.519Z,100580.16
2019-01-17T13:06:10.892Z,100588.08
2019-01-17T13:08:41.334Z,100586.34
2019-01-17T13:11:11.873Z,100583.33
2019-01-17T13:13:43.356Z,100589.81
2019-01-17T13:16:13.723Z,100580.89
2019-01-17T13:18:44.321Z,100581.22
2019-01-17T13:21:15.141Z,100576.53
2019-01-17T13:23:45.707Z,100579.25
2019-01-17T13:26:16.387Z,100569.70
2019-01-17T13:29:40.352Z,100573.91
2019-01-17T13:32:11.063Z,100575.70
2019-01-17T13:34:41.462Z,100575.70
2019-01-17T13:37:11.959Z,100577.02
2019-01-17T13:39:42.628Z,100575.27
2019-01-17T13:42:13.115Z,100573.97
2019-01-17T13:44:43.530Z,100578.11
2019-01-17T13:47:14.272Z,100573.45
2019-01-17T13:50:04.995Z,100571.91
2019-01-17T13:52:35.702Z,100571.92
2019-01-17T13:55:07.015Z,100572.69
2019-01-17T13:57:37.928Z,100562.45
2019-01-17T14:00:12.991Z,100567.86
2019-01-17T14:02:43.796Z,100559.94
2019-01-17T14:05:14.716Z,100553.91
2019-01-17T14:07:47.062Z,100551.02
2019-01-17T14:10:17.853Z,100556.65
2019-01-17T14:12:48.308Z,100555.43
2019-01-17T14:15:26.786Z,100559.02
2019-01-17T14:17:56.993Z,100552.66
2019-01-17T14:20:27.501Z,100555.41
2019-01-17T14:22:58.055Z,100557.00
2019-01-17T14:25:28.450Z,100545.33
2019-01-17T14:27:58.819Z,100548.69
2019-01-17T14:30:31.056Z,100544.26
2019-01-17T14:33:01.622Z,100544.99
2019-01-17T14:35:32.139Z,100554.08
2019-01-17T14:38:02.694Z,100547.04
2019-01-17T14:40:33.070Z,100547.94
2019-01-17T14:43:03.516Z,100550.94
2019-01-17T14:45:33.909Z,100541.68
2019-01-17T14:48:04.069Z,100546.66
2019-01-17T14:50:34.507Z,100543.17
2019-01-17T14:53:05.420Z,100548.87
2019-01-17T14:55:35.834Z,100545.91
2019-01-17T14:58:06.635Z,100542.72
2019-01-17T15:00:37.337Z,100552.05
2019-01-17T15:03:07.973Z,100556.02
2019-01-17T15:05:38.489Z,100549.42
2019-01-17T15:08:09.049Z,100561.86
2019-01-17T15:11:02.785Z,100560.19
2019-01-17T15:13:33.316Z,100560.00
2019-01-17T15:16:06.868Z,100561.34
2019-01-17T15:18:37.512Z,100565.17
2019-01-17T15:21:08.254Z,100567.19
2019-01-17T15:23:38.874Z,100566.28
2019-01-17T15:26:09.967Z,100563.46
2019-01-17T15:28:40.799Z,100567.06
2019-01-17T15:31:11.361Z,100561.82
2019-01-17T15:33:41.832Z,100574.39
2019-01-17T15:36:12.865Z,100566.42
2019-01-17T15:38:43.280Z,100574.70
2019-01-17T15:41:13.792Z,100564.69
2019-01-17T15:43:44.606Z,100570.31
2019-01-17T15:46:15.217Z,100565.78
2019-01-17T15:48:45.846Z,100569.94
2019-01-17T15:51:17.249Z,100570.69
2019-01-17T15:53:47.885Z,100578.86
2019-01-17T15:56:18.212Z,100581.17
2019-01-17T15:58:49.910Z,100576.51
2019-01-17T16:01:20.547Z,100581.04
2019-01-17T16:03:51.538Z,100585.06
2019-01-17T16:06:22.297Z,100583.77
2019-01-17T16:08:52.980Z,100584.04
2019-01-17T16:11:25.174Z,100588.51
2019-01-17T16:13:55.683Z,100585.72
2019-01-17T16:16:26.248Z,100586.26
2019-01-17T16:18:56.929Z,100586.36
2019-01-17T16:21:31.141Z,100582.81
2019-01-17T16:24:01.806Z,100588.51
2019-01-17T16:26:32.409Z,100589.42
2019-01-17T16:29:03.508Z,100591.30
2019-01-17T16:31:34.112Z,100583.79
2019-01-17T16:34:04.830Z,100589.95
2019-01-17T16:36:35.667Z,100585.92
2019-01-17T16:39:09.432Z,100589.16
2019-01-17T16:41:40.133Z,100570.25
2019-01-17T16:44:12.122Z,100594.19
2019-01-17T16:46:44.347Z,100595.33
2019-01-17T16:49:14.985Z,100596.47
2019-01-17T16:51:46.847Z,100599.37
2019-01-17T16:54:17.691Z,100597.70
2019-01-17T16:56:48.414Z,100588.05
2019-01-17T16:59:19.403Z,100599.53
2019-01-17T17:01:50.150Z,100595.30
2019-01-17T17:04:20.878Z,100593.22
2019-01-17T17:06:51.634Z,100594.70
2019-01-17T17:09:23.342Z,100596.97
2019-01-17T17:11:53.957Z,100604.62
2019-01-17T17:14:24.838Z,100602.89
2019-01-17T17:16:55.411Z,100598.42
2019-01-17T17:19:26.773Z,100596.75
2019-01-17T17:21:57.595Z,100612.66
2019-01-17T17:24:28.292Z,100612.56
2019-01-17T17:26:58.871Z,100601.66
2019-01-17T17:29:29.719Z,100614.36
2019-01-17T17:32:00.527Z,100607.67
2019-01-17T17:34:31.514Z,100600.64
2019-01-17T17:37:02.305Z,100605.20
2019-01-17T17:39:33.416Z,100591.78
2019-01-17T17:42:04.004Z,100598.30
2019-01-17T17:44:35.755Z,100596.84
2019-01-17T17:47:08.955Z,100596.78
2019-01-17T17:49:40.888Z,100601.16
2019-01-17T17:52:12.398Z,100597.20
2019-01-17T17:54:43.560Z,100593.70
2019-01-17T17:57:14.329Z,100583.08
2019-01-17T17:59:45.816Z,100594.99
2019-01-17T18:02:25.858Z,100588.84
2019-01-17T18:04:56.512Z,100593.81
2019-01-17T18:07:27.246Z,100595.00
2019-01-17T18:09:58.138Z,100592.54
2019-01-17T18:12:30.280Z,100594.16
2019-01-17T18:15:01.384Z,100598.56
2019-01-17T18:17:32.576Z,100597.09
2019-01-17T18:20:03.450Z,100594.89
2019-01-17T18:22:34.125Z,100587.32
2019-01-17T18:25:04.853Z,100586.97
2019-01-17T18:27:35.857Z,100586.77
2019-01-17T18:30:10.292Z,100594.09
2019-01-17T18:32:41.070Z,100590.90
2019-01-17T18:35:11.961Z,100595.19
2019-01-17T18:37:44.031Z,100587.02
2019-01-17T18:40:15.700Z,100583.00
2019-01-17T18:42:46.455Z,100587.64
2019-01-17T18:45:19.133Z,100581.30
2019-01-17T18:47:50.101Z,100581.36
2019-01-17T18:50:22.862Z,100588.78
2019-01-17T18:52:54.267Z,100587.50
2019-01-17T18:55:25.106Z,100587.32
2019-01-17T18:57:55.811Z,100589.66
2019-01-17T19:00:33.057Z,100585.47
2019-01-17T19:03:04.325Z,100588.10
2019-01-17T19:05:36.438Z,100586.56
2019-01-17T19:08:07.105Z,100589.88
2019-01-17T19:10:37.890Z,100588.80
2019-01-17T19:13:08.695Z,100589.37
2019-01-17T19:15:40.033Z,100578.48
2019-01-17T19:18:10.954Z,100580.38
2019-01-17T19:20:43.323Z,100580.60
2019-01-17T19:23:34.055Z,100580.57
2019-01-17T19:26:05.041Z,100578.68
2019-01-17T19:28:36.173Z,100579.19
2019-01-17T19:31:08.103Z,100576.88
2019-01-17T19:33:40.982Z,100579.28
2019-01-17T19:36:12.937Z,100580.25
2019-01-17T19:38:44.116Z,100582.27
2019-01-17T19:41:14.798Z,100578.98
2019-01-17T19:43:45.430Z,100568.72
2019-01-17T19:46:15.993Z,100575.97
2019-01-17T19:48:47.718Z,100580.81
2019-01-17T19:51:19.347Z,100577.52
2019-01-17T19:53:49.940Z,100583.52
2019-01-17T19:56:22.131Z,100581.96
2019-01-17T19:58:52.786Z,100581.08
2019-01-17T20:01:23.426Z,100578.01
2019-01-17T20:03:54.941Z,100577.86
2019-01-17T20:06:25.820Z,100581.44
2019-01-17T20:08:56.526Z,100577.71
2019-01-17T20:11:27.091Z,100577.13
2019-01-17T20:13:58.903Z,100578.28
2019-01-17T20:16:29.528Z,100579.84
2019-01-17T20:19:00.315Z,100572.58
2019-01-17T20:21:31.005Z,100571.66
2019-01-17T20:24:03.543Z,100572.63
2019-01-17T20:26:34.146Z,100568.97
2019-01-17T20:29:24.659Z,100566.38
2019-01-17T20:31:55.391Z,100568.67
2019-01-17T20:34:26.137Z,100557.52
2019-01-17T20:36:56.817Z,100565.30
2019-01-17T20:39:27.740Z,100569.30
2019-01-17T20:42:02.224Z,100570.39
2019-01-17T20:44:34.584Z,100574.27
2019-01-17T20:47:05.381Z,100563.46
2019-01-17T20:49:37.160Z,100570.65
2019-01-17T20:52:07.850Z,100574.31
2019-01-17T20:54:38.937Z,100575.47
2019-01-17T20:57:10.724Z,100569.62
2019-01-17T20:59:41.608Z,100569.62
2019-01-17T21:02:18.157Z,100571.06
2019-01-17T21:04:50.078Z,100560.02
2019-01-17T21:07:21.679Z,100565.66
2019-01-17T21:09:52.391Z,100564.17
2019-01-17T21:12:24.125Z,100570.20
2019-01-17T21:14:56.295Z,100566.39
2019-01-17T21:17:27.353Z,100565.62
2019-01-17T21:19:58.063Z,100568.54
2019-01-17T21:22:28.678Z,100574.55
2019-01-17T21:24:59.246Z,100568.91
2019-01-17T21:27:30.152Z,100572.21
2019-01-17T21:30:00.815Z,100576.55
2019-01-17T21:32:31.528Z,100576.95
2019-01-17T21:35:02.230Z,100580.63
2019-01-17T21:37:32.843Z,100579.03
2019-01-17T21:40:03.628Z,100570.77
2019-01-17T21:42:34.661Z,100570.47
2019-01-17T21:45:06.060Z,100567.28
2019-01-17T21:47:36.658Z,100562.13
2019-01-17T21:50:10.950Z,100562.44
2019-01-17T21:52:42.553Z,100567.62
2019-01-17T21:55:14.895Z,100571.20
2019-01-17T21:57:46.827Z,100568.32
2019-01-17T22:00:24.962Z,100560.91
2019-01-17T22:02:58.259Z,100564.43
2019-01-17T22:05:29.719Z,100559.39
2019-01-17T22:08:02.025Z,100553.87
2019-01-17T22:10:32.732Z,100557.12
2019-01-17T22:13:03.696Z,100547.87
2019-01-17T22:15:34.380Z,100545.63
2019-01-17T22:18:05.102Z,100547.59
2019-01-17T22:20:35.974Z,100544.73
2019-01-17T22:23:06.485Z,100544.88
2019-01-17T22:25:37.100Z,100540.94
2019-01-17T22:28:07.695Z,100544.26
2019-01-17T22:30:38.545Z,100543.76
2019-01-17T22:33:10.564Z,100545.64
2019-01-17T22:35:41.523Z,100544.27
2019-01-17T22:38:12.191Z,100540.02
2019-01-17T22:40:44.500Z,100535.69
2019-01-17T22:43:15.233Z,100535.69
2019-01-17T22:45:45.684Z,100536.77
2019-01-17T22:48:17.514Z,100533.23
2019-01-17T22:50:48.216Z,100532.14
2019-01-17T22:53:18.815Z,100530.70
2019-01-17T22:55:51.084Z,100532.70
2019-01-17T22:58:22.012Z,100529.33
2019-01-17T23:01:15.678Z,100534.59
2019-01-17T23:03:47.804Z,100530.86
2019-01-17T23:06:19.536Z,100528.53
2019-01-17T23:08:50.005Z,100531.38
2019-01-17T23:11:22.335Z,100530.34
2019-01-17T23:13:53.096Z,100533.34
2019-01-17T23:16:23.692Z,100521.27
2019-01-17T23:18:54.562Z,100519.50
2019-01-17T23:21:26.483Z,100515.91
2019-01-17T23:23:58.484Z,100513.95
2019-01-17T23:26:29.225Z,100516.02
2019-01-17T23:28:59.757Z,100510.55
2019-01-17T23:31:30.216Z,100515.69
2019-01-17T23:34:00.919Z,100509.05
2019-01-17T23:36:32.515Z,100511.75
2019-01-17T23:39:06.961Z,100510.03
2019-01-17T23:41:37.576Z,100499.43
2019-01-17T23:44:09.500Z,100501.64
2019-01-17T23:46:43.773Z,100496.55
2019-01-17T23:49:14.659Z,100496.64
2019-01-17T23:51:46.708Z,100495.19
2019-01-17T23:54:17.288Z,100503.50
2019-01-17T23:56:47.780Z,100497.61
2019-01-17T23:59:22.654Z,100496.23
